Time;durP1;ratioP1;P1;durP2;ratioP2;P2;SDS_P1;SDS_P2;PMS_P1;PMS_P2;Temp;Humidity;BMP_temperature;BMP_pressure;BME280_temperature;BME280_humidity;BME280_pressure;Samples;Min_cycle;Max_cycle;Signal;HPM_P1;HPM_P2
2023/10/05 00:04:47;;;;;;;;;;;;;;;;;;5008510;28;4480;-49
2023/10/05 00:07:26;;;;;;;;;;;;;;;;;;4997816;28;4660;-48
2023/10/05 00:09:51;;;;;;;;;;;;;;;;;;5004999;28;6022;-47
2023/10/05 00:12:23;;;;;;;;;;;;;;;;;;5006359;28;4555;-48
2023/10/05 00:14:55;;;;;;;;;;;;;;;;;;5008531;28;1184;-46
2023/10/05 00:17:20;;;;;;;;;;;;;;;;;;4989953;28;4748;-49
2023/10/05 00:19:46;;;;;;;;;;;;;;;;;;4999983;28;5047;-49
2023/10/05 00:22:11;;;;;;;;;;;;;;;;;;5004228;28;5007;-47
2023/10/05 00:24:37;;;;;;;;;;;;;;;;;;5008554;28;5051;-48
2023/10/05 00:27:04;;;;;;;;;;;;;;;;;;5004513;28;5125;-48
2023/10/05 00:29:40;;;;;;;;;;;;;;;;;;5009696;28;1267;-47
2023/10/05 00:32:09;;;;;;;;;;;;;;;;;;5010421;28;5038;-51
2023/10/05 00:34:35;;;;;;;;;;;;;;;;;;5008389;28;5011;-47
2023/10/05 00:37:00;;;;;;;;;;;;;;;;;;5006551;28;4976;-48
2023/10/05 00:39:29;;;;;;;;;;;;;;;;;;5003761;28;4574;-47
2023/10/05 00:44:23;;;;;;;;;;;;;;;;;;5006912;28;3355;-49
2023/10/05 00:46:49;;;;;;;;;;;;;;;;;;5002953;28;4998;-48
2023/10/05 00:49:19;;;;;;;;;;;;;;;;;;5020966;28;4464;-48
2023/10/05 00:52:00;;;;;;;;;;;;;;;;;;5005193;28;5074;-46
2023/10/05 00:54:30;;;;;;;;;;;;;;;;;;5015198;28;5179;-47
2023/10/05 00:56:57;;;;;;;;;;;;;;;;;;5008733;28;5315;-47
2023/10/05 00:59:22;;;;;;;;;;;;;;;;;;5008430;28;1485;-48
2023/10/05 01:04:23;;;;;;;;;;;;;;;;;;5022316;28;5085;-51
2023/10/05 01:06:55;;;;;;;;;;;;;;;;;;5021549;28;5212;-46
2023/10/05 01:12:21;;;;;;;;;;;;;;;;;;5011086;28;5046;-48
2023/10/05 01:14:52;;;;;;;;;;;;;;;;;;5003282;28;1587;-45
2023/10/05 01:17:21;;;;;;;;;;;;;;;;;;5008380;28;5052;-48
2023/10/05 01:19:57;;;;;;;;;;;;;;;;;;5008330;28;5020;-48
2023/10/05 01:22:23;;;;;;;;;;;;;;;;;;5021693;28;5074;-47
2023/10/05 01:24:49;;;;;;;;;;;;;;;;;;5011914;28;4736;-48
2023/10/05 01:27:14;;;;;;;;;;;;;;;;;;5008307;28;4986;-47
2023/10/05 01:29:40;;;;;;;;;;;;;;;;;;5008385;28;1330;-48
2023/10/05 01:32:07;;;;;;;;;;;;;;;;;;5004686;28;4954;-47
2023/10/05 01:34:32;;;;;;;;;;;;;;;;;;5007893;28;5025;-48
2023/10/05 01:36:58;;;;;;;;;;;;;;;;;;5006679;28;5099;-47
2023/10/05 01:39:24;;;;;;;;;;;;;;;;;;5005846;28;4478;-47
2023/10/05 01:41:50;;;;;;;;;;;;;;;;;;5007997;28;1074;-47
2023/10/05 01:44:15;;;;;;;;;;;;;;;;;;5007963;28;5046;-51
2023/10/05 01:46:41;;;;;;;;;;;;;;;;;;4996657;28;4880;-48
2023/10/05 01:49:06;;;;;;;;;;;;;;;;;;5006370;28;5054;-49
2023/10/05 01:51:31;;;;;;;;;;;;;;;;;;5003165;28;5002;-49
2023/10/05 01:54:05;;;;;;;;;;;;;;;;;;5007580;28;5267;-47
2023/10/05 01:56:32;;;;;;;;;;;;;;;;;;5001079;28;1566;-48
2023/10/05 01:58:59;;;;;;;;;;;;;;;;;;5000271;28;4662;-47
2023/10/05 02:01:28;;;;;;;;;;;;;;;;;;5002485;28;5040;-48
2023/10/05 02:03:54;;;;;;;;;;;;;;;;;;5003129;28;5277;-49
2023/10/05 02:06:19;;;;;;;;;;;;;;;;;;5008638;28;5015;-49
2023/10/05 02:08:45;;;;;;;;;;;;;;;;;;5008277;28;1268;-49
2023/10/05 02:11:10;;;;;;;;;;;;;;;;;;5007100;28;5280;-48
2023/10/05 02:13:36;;;;;;;;;;;;;;;;;;4989367;28;4693;-47
2023/10/05 02:16:02;;;;;;;;;;;;;;;;;;5005115;28;5089;-49
2023/10/05 02:18:30;;;;;;;;;;;;;;;;;;4998727;28;5160;-49
2023/10/05 02:21:05;;;;;;;;;;;;;;;;;;4989740;28;4971;-49
2023/10/05 02:23:37;;;;;;;;;;;;;;;;;;5007545;28;3367;-49
2023/10/05 02:26:23;;;;;;;;;;;;;;;;;;5002024;28;5386;-48
2023/10/05 02:28:48;;;;;;;;;;;;;;;;;;5000345;28;5328;-47
2023/10/05 02:31:14;;;;;;;;;;;;;;;;;;5001222;28;5099;-46
2023/10/05 02:33:40;;;;;;;;;;;;;;;;;;5002930;28;5074;-49
2023/10/05 02:36:11;;;;;;;;;;;;;;;;;;5003833;28;5032;-47
2023/10/05 02:38:37;;;;;;;;;;;;;;;;;;5005551;28;3555;-48
2023/10/05 02:41:05;;;;;;;;;;;;;;;;;;5001164;28;4693;-48
2023/10/05 02:43:38;;;;;;;;;;;;;;;;;;5004005;28;4678;-51
2023/10/05 02:46:09;;;;;;;;;;;;;;;;;;4999649;28;5093;-46
2023/10/05 02:48:36;;;;;;;;;;;;;;;;;;5004511;28;5158;-49
2023/10/05 02:51:05;;;;;;;;;;;;;;;;;;5006508;28;4582;-49
2023/10/05 02:53:37;;;;;;;;;;;;;;;;;;5003740;28;5157;-49
2023/10/05 02:56:03;;;;;;;;;;;;;;;;;;5005507;28;4678;-48
2023/10/05 02:58:29;;;;;;;;;;;;;;;;;;5006104;28;5109;-50
2023/10/05 03:00:54;;;;;;;;;;;;;;;;;;5002932;28;5132;-51
2023/10/05 03:03:20;;;;;;;;;;;;;;;;;;5005205;28;5214;-47
2023/10/05 03:05:45;;;;;;;;;;;;;;;;;;5005795;28;3537;-49
2023/10/05 03:08:10;;;;;;;;;;;;;;;;;;5005129;28;4928;-50
2023/10/05 03:10:36;;;;;;;;;;;;;;;;;;5004150;28;4462;-48
2023/10/05 03:13:05;;;;;;;;;;;;;;;;;;5006775;28;4684;-50
2023/10/05 03:15:34;;;;;;;;;;;;;;;;;;5011247;28;5277;-47
2023/10/05 03:17:59;;;;;;;;;;;;;;;;;;5025043;28;5058;-50
2023/10/05 03:20:24;;;;;;;;;;;;;;;;;;5010897;28;1106;-47
2023/10/05 03:22:54;;;;;;;;;;;;;;;;;;5008026;28;4973;-47
2023/10/05 03:25:19;;;;;;;;;;;;;;;;;;5008606;28;4638;-50
2023/10/05 03:27:46;;;;;;;;;;;;;;;;;;5007064;28;4490;-49
2023/10/05 03:30:14;;;;;;;;;;;;;;;;;;5002638;28;5056;-48
2023/10/05 03:32:40;;;;;;;;;;;;;;;;;;5009643;28;2213;-49
2023/10/05 03:35:08;;;;;;;;;;;;;;;;;;5001111;28;4996;-48
2023/10/05 03:37:34;;;;;;;;;;;;;;;;;;5008876;28;4635;-47
2023/10/05 03:42:27;;;;;;;;;;;;;;;;;;5007185;28;4551;-47
2023/10/05 03:45:03;;;;;;;;;;;;;;;;;;5003558;28;5211;-48
2023/10/05 03:47:29;;;;;;;;;;;;;;;;;;5003354;28;1255;-50
2023/10/05 03:49:55;;;;;;;;;;;;;;;;;;5009007;28;5032;-50
2023/10/05 03:52:20;;;;;;;;;;;;;;;;;;5003848;28;5064;-47
2023/10/05 03:54:45;;;;;;;;;;;;;;;;;;5008732;28;5115;-49
2023/10/05 03:57:10;;;;;;;;;;;;;;;;;;5005341;28;4457;-47
2023/10/05 03:59:36;;;;;;;;;;;;;;;;;;4991527;28;3284;-49
2023/10/05 04:02:03;;;;;;;;;;;;;;;;;;5004082;28;5030;-47
2023/10/05 04:04:34;;;;;;;;;;;;;;;;;;5010201;28;4579;-47
2023/10/05 04:07:00;;;;;;;;;;;;;;;;;;5003570;28;5031;-47
2023/10/05 04:09:28;;;;;;;;;;;;;;;;;;5009353;28;4480;-46
2023/10/05 04:11:53;;;;;;;;;;;;;;;;;;5002699;28;5050;-47
2023/10/05 04:14:19;;;;;;;;;;;;;;;;;;5010257;28;1098;-48
2023/10/05 04:16:44;;;;;;;;;;;;;;;;;;5007059;28;4854;-47
2023/10/05 04:19:11;;;;;;;;;;;;;;;;;;5005749;28;5282;-50
2023/10/05 04:21:36;;;;;;;;;;;;;;;;;;5008453;28;4888;-48
2023/10/05 04:24:02;;;;;;;;;;;;;;;;;;5007430;28;4679;-49
2023/10/05 04:26:37;;;;;;;;;;;;;;;;;;5007339;28;1390;-49
2023/10/05 04:29:08;;;;;;;;;;;;;;;;;;5006948;28;4965;-49
2023/10/05 04:31:36;;;;;;;;;;;;;;;;;;5008927;28;5127;-49
2023/10/05 04:34:05;;;;;;;;;;;;;;;;;;5001498;28;5176;-48
2023/10/05 04:36:30;;;;;;;;;;;;;;;;;;5008841;28;5006;-47
2023/10/05 04:38:55;;;;;;;;;;;;;;;;;;5001261;28;4450;-49
2023/10/05 04:41:24;;;;;;;;;;;;;;;;;;5009368;28;1105;-47
2023/10/05 04:43:52;;;;;;;;;;;;;;;;;;4990864;28;4636;-49
2023/10/05 04:46:18;;;;;;;;;;;;;;;;;;4994668;28;4974;-48
2023/10/05 04:48:55;;;;;;;;;;;;;;;;;;4990313;28;5099;-50
2023/10/05 04:51:20;;;;;;;;;;;;;;;;;;4997442;28;4987;-48
2023/10/05 04:53:48;;;;;;;;;;;;;;;;;;5003367;28;5017;-48
2023/10/05 04:56:22;;;;;;;;;;;;;;;;;;5007102;28;4613;-49
2023/10/05 04:59:06;;;;;;;;;;;;;;;;;;4990574;28;5180;-50
2023/10/05 05:01:46;;;;;;;;;;;;;;;;;;5001441;28;4921;-47
2023/10/05 05:04:27;;;;;;;;;;;;;;;;;;4988785;28;5074;-50
2023/10/05 05:06:53;;;;;;;;;;;;;;;;;;4999454;28;4677;-50
2023/10/05 05:09:19;;;;;;;;;;;;;;;;;;4988598;28;4465;-49
2023/10/05 05:11:44;;;;;;;;;;;;;;;;;;4989148;28;1233;-49
2023/10/05 05:14:12;;;;;;;;;;;;;;;;;;4988761;28;5078;-46
2023/10/05 05:16:39;;;;;;;;;;;;;;;;;;4983452;28;5017;-48
2023/10/05 05:19:06;;;;;;;;;;;;;;;;;;4984657;28;4958;-48
2023/10/05 05:21:34;;;;;;;;;;;;;;;;;;4982155;28;4473;-50
2023/10/05 05:24:00;;;;;;;;;;;;;;;;;;4983445;28;5184;-48
2023/10/05 05:26:25;;;;;;;;;;;;;;;;;;4988071;28;1951;-52
2023/10/05 05:28:52;;;;;;;;;;;;;;;;;;4985417;28;5007;-49
2023/10/05 05:31:18;;;;;;;;;;;;;;;;;;4984546;28;5149;-51
2023/10/05 05:33:44;;;;;;;;;;;;;;;;;;4988119;28;5046;-49
2023/10/05 05:36:11;;;;;;;;;;;;;;;;;;4984904;28;4943;-48
2023/10/05 05:38:38;;;;;;;;;;;;;;;;;;4984045;28;2068;-49
2023/10/05 05:41:11;;;;;;;;;;;;;;;;;;4977266;28;4933;-50
2023/10/05 05:43:36;;;;;;;;;;;;;;;;;;4980318;28;4710;-48
2023/10/05 05:46:02;;;;;;;;;;;;;;;;;;4982398;28;4985;-50
2023/10/05 05:48:27;;;;;;;;;;;;;;;;;;4986194;28;5210;-50
2023/10/05 05:50:53;;;;;;;;;;;;;;;;;;4982268;28;5058;-47
2023/10/05 05:53:18;;;;;;;;;;;;;;;;;;4987104;28;5173;-47
2023/10/05 05:55:53;;;;;;;;;;;;;;;;;;4985795;28;5049;-48
2023/10/05 05:58:18;;;;;;;;;;;;;;;;;;4980498;28;5267;-50
2023/10/05 06:00:47;;;;;;;;;;;;;;;;;;4985724;28;4472;-47
2023/10/05 06:03:13;;;;;;;;;;;;;;;;;;5009855;28;4741;-48
2023/10/05 06:05:39;;;;;;;;;;;;;;;;;;4997174;28;3296;-48
2023/10/05 06:08:08;;;;;;;;;;;;;;;;;;5019629;28;5057;-47
2023/10/05 06:10:35;;;;;;;;;;;;;;;;;;5002872;28;4975;-46
2023/10/05 06:13:01;;;;;;;;;;;;;;;;;;5002701;28;5958;-47
2023/10/05 06:15:26;;;;;;;;;;;;;;;;;;5003142;28;5083;-48
2023/10/05 06:17:51;;;;;;;;;;;;;;;;;;5004317;28;3476;-49
2023/10/05 06:20:17;;;;;;;;;;;;;;;;;;5005989;28;4663;-48
2023/10/05 06:22:46;;;;;;;;;;;;;;;;;;5001087;28;4531;-47
2023/10/05 06:25:17;;;;;;;;;;;;;;;;;;4999966;28;5060;-50
2023/10/05 06:27:46;;;;;;;;;;;;;;;;;;4999844;28;5945;-48
2023/10/05 06:30:11;;;;;;;;;;;;;;;;;;5004797;28;5153;-49
2023/10/05 06:32:40;;;;;;;;;;;;;;;;;;5005328;28;3352;-50
2023/10/05 06:35:08;;;;;;;;;;;;;;;;;;5020449;28;4438;-49
2023/10/05 06:37:39;;;;;;;;;;;;;;;;;;4999616;28;5105;-49
2023/10/05 06:40:12;;;;;;;;;;;;;;;;;;5005213;28;4536;-47
2023/10/05 06:42:39;;;;;;;;;;;;;;;;;;4988264;28;5421;-50
2023/10/05 06:45:07;;;;;;;;;;;;;;;;;;5004809;28;5138;-51
2023/10/05 06:47:36;;;;;;;;;;;;;;;;;;5001572;28;1146;-48
2023/10/05 06:50:08;;;;;;;;;;;;;;;;;;5006573;28;5133;-48
2023/10/05 06:52:33;;;;;;;;;;;;;;;;;;5009657;28;4649;-46
2023/10/05 06:54:58;;;;;;;;;;;;;;;;;;5010489;28;5414;-49
2023/10/05 06:57:24;;;;;;;;;;;;;;;;;;5011070;28;4572;-49
2023/10/05 06:59:49;;;;;;;;;;;;;;;;;;5007469;28;1202;-51
2023/10/05 07:02:14;;;;;;;;;;;;;;;;;;5010149;28;4986;-47
2023/10/05 07:04:40;;;;;;;;;;;;;;;;;;5010159;28;5126;-47
2023/10/05 07:07:05;;;;;;;;;;;;;;;;;;5015141;28;4889;-48
2023/10/05 07:09:30;;;;;;;;;;;;;;;;;;5009834;28;4988;-49
2023/10/05 07:11:55;;;;;;;;;;;;;;;;;;5024605;28;4829;-48
2023/10/05 07:14:21;;;;;;;;;;;;;;;;;;5005715;28;1304;-47
2023/10/05 07:16:46;;;;;;;;;;;;;;;;;;4991136;28;5152;-47
2023/10/05 07:19:11;;;;;;;;;;;;;;;;;;5010132;28;5036;-49
2023/10/05 07:21:37;;;;;;;;;;;;;;;;;;5010082;28;5063;-49
2023/10/05 07:24:04;;;;;;;;;;;;;;;;;;5009995;28;5020;-47
2023/10/05 07:26:29;;;;;;;;;;;;;;;;;;5009555;28;1275;-51
2023/10/05 07:28:55;;;;;;;;;;;;;;;;;;5001496;28;5030;-50
2023/10/05 07:31:20;;;;;;;;;;;;;;;;;;5009469;28;5060;-48
2023/10/05 07:33:45;;;;;;;;;;;;;;;;;;5002821;28;5543;-48
2023/10/05 07:36:13;;;;;;;;;;;;;;;;;;5008851;28;5150;-47
2023/10/05 07:38:38;;;;;;;;;;;;;;;;;;5007800;28;1150;-50
2023/10/05 07:41:04;;;;;;;;;;;;;;;;;;5008047;28;4821;-47
2023/10/05 07:43:30;;;;;;;;;;;;;;;;;;5003234;28;5279;-51
2023/10/05 07:45:55;;;;;;;;;;;;;;;;;;5004164;28;5136;-49
2023/10/05 07:48:21;;;;;;;;;;;;;;;;;;5004357;28;5066;-48
2023/10/05 07:50:48;;;;;;;;;;;;;;;;;;5007895;28;3331;-49
2023/10/05 07:53:13;;;;;;;;;;;;;;;;;;5003183;28;5216;-46
2023/10/05 07:55:39;;;;;;;;;;;;;;;;;;5006689;28;4680;-47
2023/10/05 07:58:05;;;;;;;;;;;;;;;;;;5007125;28;5907;-48
2023/10/05 08:00:32;;;;;;;;;;;;;;;;;;5005115;28;5075;-47
2023/10/05 08:02:58;;;;;;;;;;;;;;;;;;5004521;28;5151;-46
2023/10/05 08:05:23;;;;;;;;;;;;;;;;;;5009228;28;3241;-45
2023/10/05 08:07:49;;;;;;;;;;;;;;;;;;5008895;28;4464;-46
2023/10/05 08:10:18;;;;;;;;;;;;;;;;;;5005505;28;4587;-48
2023/10/05 08:12:44;;;;;;;;;;;;;;;;;;5008383;28;5111;-49
2023/10/05 08:15:18;;;;;;;;;;;;;;;;;;5008559;28;5120;-46
2023/10/05 08:17:44;;;;;;;;;;;;;;;;;;5009132;28;1248;-50
2023/10/05 08:20:10;;;;;;;;;;;;;;;;;;5006441;28;4916;-48
2023/10/05 08:22:35;;;;;;;;;;;;;;;;;;5003650;28;4677;-47
2023/10/05 08:25:09;;;;;;;;;;;;;;;;;;5002723;28;5434;-46
2023/10/05 08:27:36;;;;;;;;;;;;;;;;;;5004611;28;4774;-45
2023/10/05 08:30:01;;;;;;;;;;;;;;;;;;5004052;28;5030;-46
2023/10/05 08:32:27;;;;;;;;;;;;;;;;;;5005648;28;1410;-50
2023/10/05 08:34:53;;;;;;;;;;;;;;;;;;5001641;28;5044;-48
2023/10/05 08:37:22;;;;;;;;;;;;;;;;;;5002746;28;5121;-46
2023/10/05 08:39:47;;;;;;;;;;;;;;;;;;5002984;28;5269;-51
2023/10/05 08:42:16;;;;;;;;;;;;;;;;;;5003492;28;4839;-48
2023/10/05 08:44:43;;;;;;;;;;;;;;;;;;4997941;28;1918;-47
2023/10/05 08:47:10;;;;;;;;;;;;;;;;;;4996690;28;4457;-48
2023/10/05 08:49:36;;;;;;;;;;;;;;;;;;4999935;28;4605;-47
2023/10/05 08:52:13;;;;;;;;;;;;;;;;;;4999618;28;4687;-46
2023/10/05 08:54:38;;;;;;;;;;;;;;;;;;4985302;28;5126;-47
2023/10/05 08:57:10;;;;;;;;;;;;;;;;;;4999107;28;4728;-49
2023/10/05 08:59:39;;;;;;;;;;;;;;;;;;5004491;28;1602;-47
2023/10/05 09:02:07;;;;;;;;;;;;;;;;;;4998889;28;4468;-45
2023/10/05 09:04:44;;;;;;;;;;;;;;;;;;5005663;28;5529;-47
2023/10/05 09:07:34;;;;;;;;;;;;;;;;;;5011861;28;5048;-50
2023/10/05 09:10:02;;;;;;;;;;;;;;;;;;5003542;28;5205;-49
2023/10/05 09:12:46;;;;;;;;;;;;;;;;;;5000353;28;5102;-49
2023/10/05 09:17:58;;;;;;;;;;;;;;;;;;5006380;28;1179;-48
2023/10/05 09:20:24;;;;;;;;;;;;;;;;;;5001962;28;5264;-47
2023/10/05 09:22:50;;;;;;;;;;;;;;;;;;5003711;28;4573;-49
2023/10/05 09:25:17;;;;;;;;;;;;;;;;;;5001644;28;4474;-50
2023/10/05 09:27:50;;;;;;;;;;;;;;;;;;5000708;28;5102;-49
2023/10/05 09:30:18;;;;;;;;;;;;;;;;;;5003125;28;4489;-48
2023/10/05 09:32:46;;;;;;;;;;;;;;;;;;5005251;28;1410;-51
2023/10/05 09:35:31;;;;;;;;;;;;;;;;;;5000595;28;4461;-49
2023/10/05 09:37:58;;;;;;;;;;;;;;;;;;5003006;28;5240;-50
2023/10/05 09:40:24;;;;;;;;;;;;;;;;;;4998892;28;5233;-49
2023/10/05 09:42:49;;;;;;;;;;;;;;;;;;5004470;28;5097;-47
2023/10/05 09:45:16;;;;;;;;;;;;;;;;;;5016513;28;5014;-50
2023/10/05 09:47:41;;;;;;;;;;;;;;;;;;5000315;28;1056;-50
2023/10/05 09:50:10;;;;;;;;;;;;;;;;;;4998957;28;4871;-49
2023/10/05 09:52:38;;;;;;;;;;;;;;;;;;5002216;28;5040;-47
2023/10/05 09:55:04;;;;;;;;;;;;;;;;;;4987365;28;4985;-48
2023/10/05 09:57:29;;;;;;;;;;;;;;;;;;5002235;28;5361;-47
2023/10/05 10:00:08;;;;;;;;;;;;;;;;;;5017457;28;4729;-46
2023/10/05 10:02:33;;;;;;;;;;;;;;;;;;4999541;28;3295;-48
2023/10/05 10:04:59;;;;;;;;;;;;;;;;;;4998943;28;5236;-48
2023/10/05 10:07:26;;;;;;;;;;;;;;;;;;4999296;28;5149;-46
2023/10/05 10:09:55;;;;;;;;;;;;;;;;;;5018322;28;5203;-46
2023/10/05 10:12:25;;;;;;;;;;;;;;;;;;5003602;28;4559;-50
2023/10/05 10:14:51;;;;;;;;;;;;;;;;;;5003508;28;3147;-48
2023/10/05 10:17:24;;;;;;;;;;;;;;;;;;5005028;28;4960;-49
2023/10/05 10:19:55;;;;;;;;;;;;;;;;;;5004486;28;5012;-46
2023/10/05 10:22:26;;;;;;;;;;;;;;;;;;5002554;28;5057;-50
2023/10/05 10:24:56;;;;;;;;;;;;;;;;;;5002640;28;5182;-48
2023/10/05 10:27:24;;;;;;;;;;;;;;;;;;5019190;28;4645;-46
2023/10/05 10:29:53;;;;;;;;;;;;;;;;;;5002066;28;1785;-46
2023/10/05 10:32:19;;;;;;;;;;;;;;;;;;5005231;28;4961;-46
2023/10/05 10:34:50;;;;;;;;;;;;;;;;;;4998130;28;4919;-48
2023/10/05 10:37:36;;;;;;;;;;;;;;;;;;5002696;28;5105;-48
2023/10/05 10:40:04;;;;;;;;;;;;;;;;;;4998069;28;5103;-48
2023/10/05 10:42:46;;;;;;;;;;;;;;;;;;5006517;28;5127;-48
2023/10/05 10:45:14;;;;;;;;;;;;;;;;;;4997790;28;5302;-46
2023/10/05 10:47:45;;;;;;;;;;;;;;;;;;5005477;28;1475;-48
2023/10/05 10:50:22;;;;;;;;;;;;;;;;;;5004514;28;5087;-47
2023/10/05 10:52:50;;;;;;;;;;;;;;;;;;5000346;28;4844;-47
2023/10/05 10:55:15;;;;;;;;;;;;;;;;;;5004095;28;5111;-47
2023/10/05 10:57:54;;;;;;;;;;;;;;;;;;4979016;28;5243;-49
2023/10/05 11:03:12;;;;;;;;;;;;;;;;;;4988435;28;5212;-52
2023/10/05 11:05:47;;;;;;;;;;;;;;;;;;5002240;28;3364;-53
2023/10/05 11:08:13;;;;;;;;;;;;;;;;;;5000452;28;4558;-60
2023/10/05 11:10:41;;;;;;;;;;;;;;;;;;5003924;28;5085;-60
2023/10/05 11:13:19;;;;;;;;;;;;;;;;;;4997389;28;5069;-60
2023/10/05 11:15:57;;;;;;;;;;;;;;;;;;5018410;28;5098;-59
2023/10/05 11:18:23;;;;;;;;;;;;;;;;;;4996048;28;5134;-57
2023/10/05 11:20:55;;;;;;;;;;;;;;;;;;5000485;28;3391;-56
2023/10/05 11:23:25;;;;;;;;;;;;;;;;;;5005013;28;4454;-57
2023/10/05 11:25:52;;;;;;;;;;;;;;;;;;5000442;28;5146;-56
2023/10/05 11:28:24;;;;;;;;;;;;;;;;;;4994241;28;6046;-60
2023/10/05 11:30:49;;;;;;;;;;;;;;;;;;4984164;28;4665;-57
2023/10/05 11:33:17;;;;;;;;;;;;;;;;;;5006296;28;5161;-53
2023/10/05 11:35:48;;;;;;;;;;;;;;;;;;5000635;28;3282;-58
2023/10/05 11:38:16;;;;;;;;;;;;;;;;;;5001028;28;5060;-59
2023/10/05 11:40:50;;;;;;;;;;;;;;;;;;4984785;28;5166;-58
2023/10/05 11:43:20;;;;;;;;;;;;;;;;;;5004502;28;4897;-57
2023/10/05 11:46:12;;;;;;;;;;;;;;;;;;5005206;28;5568;-57
2023/10/05 11:48:41;;;;;;;;;;;;;;;;;;5000884;28;5062;-58
2023/10/05 11:51:10;;;;;;;;;;;;;;;;;;5003694;28;5131;-56
2023/10/05 11:53:36;;;;;;;;;;;;;;;;;;5006263;28;5068;-59
2023/10/05 11:56:04;;;;;;;;;;;;;;;;;;5002975;28;5087;-53
2023/10/05 11:58:29;;;;;;;;;;;;;;;;;;4990517;28;5052;-52
2023/10/05 12:00:54;;;;;;;;;;;;;;;;;;5023501;28;5072;-52
2023/10/05 12:03:20;;;;;;;;;;;;;;;;;;5006227;28;5135;-55
2023/10/05 12:05:46;;;;;;;;;;;;;;;;;;5006282;28;3351;-55
2023/10/05 12:08:12;;;;;;;;;;;;;;;;;;5017431;28;4502;-56
2023/10/05 12:10:38;;;;;;;;;;;;;;;;;;5000538;28;4534;-53
2023/10/05 12:13:03;;;;;;;;;;;;;;;;;;5004490;28;5045;-54
2023/10/05 12:15:28;;;;;;;;;;;;;;;;;;5005291;28;5086;-53
2023/10/05 12:17:54;;;;;;;;;;;;;;;;;;5003193;28;4990;-55
2023/10/05 12:20:20;;;;;;;;;;;;;;;;;;5001640;28;3284;-58
2023/10/05 12:22:49;;;;;;;;;;;;;;;;;;4983431;28;5206;-57
2023/10/05 12:25:15;;;;;;;;;;;;;;;;;;5007612;28;4511;-56
2023/10/05 12:27:41;;;;;;;;;;;;;;;;;;5005514;28;6074;-56
2023/10/05 12:30:16;;;;;;;;;;;;;;;;;;5005532;28;5006;-58
2023/10/05 12:32:41;;;;;;;;;;;;;;;;;;5007600;28;1082;-60
2023/10/05 12:35:07;;;;;;;;;;;;;;;;;;5005411;28;4965;-59
2023/10/05 12:37:32;;;;;;;;;;;;;;;;;;5001985;28;5131;-55
2023/10/05 12:40:05;;;;;;;;;;;;;;;;;;5000918;28;5043;-58
2023/10/05 12:42:30;;;;;;;;;;;;;;;;;;5005472;28;5320;-54
2023/10/05 12:44:56;;;;;;;;;;;;;;;;;;5009633;28;5105;-56
2023/10/05 12:47:22;;;;;;;;;;;;;;;;;;5003984;28;3071;-58
2023/10/05 12:49:48;;;;;;;;;;;;;;;;;;5004908;28;5022;-52
2023/10/05 12:52:13;;;;;;;;;;;;;;;;;;4997688;28;5373;-53
2023/10/05 12:54:42;;;;;;;;;;;;;;;;;;5002402;28;5080;-53
2023/10/05 12:57:11;;;;;;;;;;;;;;;;;;5005399;28;5020;-52
2023/10/05 12:59:36;;;;;;;;;;;;;;;;;;4998187;28;2803;-53
2023/10/05 13:02:13;;;;;;;;;;;;;;;;;;4987991;28;5529;-51
2023/10/05 13:04:38;;;;;;;;;;;;;;;;;;5000393;28;4915;-55
2023/10/05 13:07:04;;;;;;;;;;;;;;;;;;5003471;28;5130;-53
2023/10/05 13:09:32;;;;;;;;;;;;;;;;;;5007262;28;4691;-54
2023/10/05 13:11:58;;;;;;;;;;;;;;;;;;5004653;28;5111;-53
2023/10/05 13:14:24;;;;;;;;;;;;;;;;;;5005346;28;3197;-51
2023/10/05 13:16:50;;;;;;;;;;;;;;;;;;5006408;28;4998;-56
2023/10/05 13:19:18;;;;;;;;;;;;;;;;;;5002668;28;4542;-50
2023/10/05 13:21:43;;;;;;;;;;;;;;;;;;4999304;28;5149;-56
2023/10/05 13:24:12;;;;;;;;;;;;;;;;;;5007847;28;5050;-56
2023/10/05 13:26:46;;;;;;;;;;;;;;;;;;5009956;28;3026;-56
2023/10/05 13:29:11;;;;;;;;;;;;;;;;;;5004312;28;5812;-55
2023/10/05 13:31:41;;;;;;;;;;;;;;;;;;5006078;28;5173;-57
2023/10/05 13:34:09;;;;;;;;;;;;;;;;;;5001060;28;4480;-57
2023/10/05 13:36:35;;;;;;;;;;;;;;;;;;4999893;28;4892;-53
2023/10/05 13:39:09;;;;;;;;;;;;;;;;;;5003162;28;5066;-52
2023/10/05 13:41:35;;;;;;;;;;;;;;;;;;5003697;28;3240;-53
2023/10/05 13:44:00;;;;;;;;;;;;;;;;;;5006347;28;5032;-53
2023/10/05 13:46:35;;;;;;;;;;;;;;;;;;5001078;28;4662;-51
2023/10/05 13:49:01;;;;;;;;;;;;;;;;;;4987724;28;4495;-54
2023/10/05 13:51:29;;;;;;;;;;;;;;;;;;4988776;28;5117;-51
2023/10/05 13:53:54;;;;;;;;;;;;;;;;;;5006722;28;5105;-54
2023/10/05 13:56:27;;;;;;;;;;;;;;;;;;5001851;28;1812;-50
2023/10/05 13:58:57;;;;;;;;;;;;;;;;;;5002478;28;5155;-53
2023/10/05 14:01:23;;;;;;;;;;;;;;;;;;5004799;28;4807;-50
2023/10/05 14:03:50;;;;;;;;;;;;;;;;;;5009298;28;4510;-52
2023/10/05 14:06:16;;;;;;;;;;;;;;;;;;5002240;28;4499;-52
2023/10/05 14:08:45;;;;;;;;;;;;;;;;;;5004733;28;3163;-50
2023/10/05 14:11:12;;;;;;;;;;;;;;;;;;5003420;28;4413;-55
2023/10/05 14:13:37;;;;;;;;;;;;;;;;;;4979496;28;5153;-53
2023/10/05 14:16:03;;;;;;;;;;;;;;;;;;5002666;28;5097;-54
2023/10/05 14:18:30;;;;;;;;;;;;;;;;;;5005093;28;5047;-54
2023/10/05 14:20:55;;;;;;;;;;;;;;;;;;5003432;28;5030;-54
2023/10/05 14:23:21;;;;;;;;;;;;;;;;;;5020425;28;3630;-51
2023/10/05 14:25:46;;;;;;;;;;;;;;;;;;5002120;28;5115;-51
2023/10/05 14:28:16;;;;;;;;;;;;;;;;;;5003786;28;5559;-52
2023/10/05 14:30:43;;;;;;;;;;;;;;;;;;4998720;28;5169;-51
2023/10/05 14:33:16;;;;;;;;;;;;;;;;;;5002253;28;5067;-51
2023/10/05 14:35:41;;;;;;;;;;;;;;;;;;5000725;28;1538;-52
2023/10/05 14:38:10;;;;;;;;;;;;;;;;;;5009131;28;4998;-52
2023/10/05 14:40:35;;;;;;;;;;;;;;;;;;5002729;28;4549;-50
2023/10/05 14:43:01;;;;;;;;;;;;;;;;;;4992074;28;5396;-50
2023/10/05 14:45:27;;;;;;;;;;;;;;;;;;4999939;28;4884;-51
2023/10/05 14:47:52;;;;;;;;;;;;;;;;;;5003180;28;1106;-53
2023/10/05 14:50:18;;;;;;;;;;;;;;;;;;5000457;28;5143;-52
2023/10/05 14:52:48;;;;;;;;;;;;;;;;;;5003107;28;4971;-52
2023/10/05 14:55:14;;;;;;;;;;;;;;;;;;5000505;28;5186;-52
2023/10/05 14:57:40;;;;;;;;;;;;;;;;;;5002073;28;4582;-52
2023/10/05 15:00:10;;;;;;;;;;;;;;;;;;4997706;28;5088;-51
2023/10/05 15:02:35;;;;;;;;;;;;;;;;;;5013881;28;3305;-52
2023/10/05 15:05:01;;;;;;;;;;;;;;;;;;5003409;28;4903;-51
2023/10/05 15:07:30;;;;;;;;;;;;;;;;;;5000517;28;4514;-50
2023/10/05 15:09:56;;;;;;;;;;;;;;;;;;5001595;28;5021;-53
2023/10/05 15:12:21;;;;;;;;;;;;;;;;;;4986436;28;4649;-53
2023/10/05 15:14:47;;;;;;;;;;;;;;;;;;4990864;28;1414;-51
2023/10/05 15:17:13;;;;;;;;;;;;;;;;;;5006473;28;4994;-52
2023/10/05 15:19:39;;;;;;;;;;;;;;;;;;5006132;28;5165;-53
2023/10/05 15:22:08;;;;;;;;;;;;;;;;;;5006981;28;5275;-53
2023/10/05 15:24:34;;;;;;;;;;;;;;;;;;5007674;28;5040;-51
2023/10/05 15:27:00;;;;;;;;;;;;;;;;;;4999384;28;5071;-54
2023/10/05 15:29:26;;;;;;;;;;;;;;;;;;5006794;28;3299;-52
2023/10/05 15:31:53;;;;;;;;;;;;;;;;;;4985284;28;5385;-53
2023/10/05 15:34:18;;;;;;;;;;;;;;;;;;5004998;28;4476;-51
2023/10/05 15:36:43;;;;;;;;;;;;;;;;;;5004783;28;5129;-53
2023/10/05 15:39:10;;;;;;;;;;;;;;;;;;5005754;28;5169;-52
2023/10/05 15:41:36;;;;;;;;;;;;;;;;;;5003396;28;3251;-52
2023/10/05 15:44:04;;;;;;;;;;;;;;;;;;4989049;28;5707;-52
2023/10/05 15:46:30;;;;;;;;;;;;;;;;;;5006456;28;5197;-54
2023/10/05 15:48:56;;;;;;;;;;;;;;;;;;5008330;28;4513;-53
2023/10/05 15:51:23;;;;;;;;;;;;;;;;;;4989757;28;5090;-52
2023/10/05 15:53:56;;;;;;;;;;;;;;;;;;5007342;28;5149;-53
2023/10/05 15:56:27;;;;;;;;;;;;;;;;;;5006463;28;4990;-53
2023/10/05 15:58:52;;;;;;;;;;;;;;;;;;4983066;28;5416;-51
2023/10/05 16:01:17;;;;;;;;;;;;;;;;;;5006305;28;5030;-52
2023/10/05 16:03:42;;;;;;;;;;;;;;;;;;5003606;28;4916;-53
2023/10/05 16:06:08;;;;;;;;;;;;;;;;;;5008936;28;4524;-53
2023/10/05 16:08:35;;;;;;;;;;;;;;;;;;4991436;28;1228;-52
2023/10/05 16:11:02;;;;;;;;;;;;;;;;;;5001977;28;4804;-52
2023/10/05 16:13:27;;;;;;;;;;;;;;;;;;5004800;28;5096;-50
2023/10/05 16:15:52;;;;;;;;;;;;;;;;;;5001730;28;4521;-51
2023/10/05 16:18:18;;;;;;;;;;;;;;;;;;5005996;28;5058;-53
2023/10/05 16:20:44;;;;;;;;;;;;;;;;;;5006975;28;1536;-52
2023/10/05 16:23:11;;;;;;;;;;;;;;;;;;5002548;28;5068;-52
2023/10/05 16:25:36;;;;;;;;;;;;;;;;;;5003004;28;4497;-53
2023/10/05 16:28:02;;;;;;;;;;;;;;;;;;4989307;28;4619;-52
2023/10/05 16:30:28;;;;;;;;;;;;;;;;;;5003764;28;5010;-51
2023/10/05 16:32:57;;;;;;;;;;;;;;;;;;5000765;28;5120;-51
2023/10/05 16:35:23;;;;;;;;;;;;;;;;;;5001171;28;1093;-51
2023/10/05 16:37:48;;;;;;;;;;;;;;;;;;5000204;28;5097;-51
2023/10/05 16:40:14;;;;;;;;;;;;;;;;;;5000538;28;5079;-51
2023/10/05 16:42:42;;;;;;;;;;;;;;;;;;5000957;28;4561;-52
2023/10/05 16:45:11;;;;;;;;;;;;;;;;;;4985504;28;5209;-51
2023/10/05 16:47:36;;;;;;;;;;;;;;;;;;5000319;28;1133;-54
2023/10/05 16:50:01;;;;;;;;;;;;;;;;;;4996015;28;5116;-53
2023/10/05 16:52:26;;;;;;;;;;;;;;;;;;5004897;28;5105;-53
2023/10/05 16:54:52;;;;;;;;;;;;;;;;;;5001051;28;5064;-49
2023/10/05 16:57:18;;;;;;;;;;;;;;;;;;4999471;28;5060;-50
2023/10/05 16:59:43;;;;;;;;;;;;;;;;;;4998623;28;3423;-49
2023/10/05 17:02:09;;;;;;;;;;;;;;;;;;5003537;28;5590;-49
2023/10/05 17:04:34;;;;;;;;;;;;;;;;;;5005614;28;4751;-50
2023/10/05 17:06:59;;;;;;;;;;;;;;;;;;5000440;28;5151;-51
2023/10/05 17:09:27;;;;;;;;;;;;;;;;;;5007064;28;4547;-49
2023/10/05 17:11:53;;;;;;;;;;;;;;;;;;5004945;28;3242;-48
2023/10/05 17:14:18;;;;;;;;;;;;;;;;;;5003991;28;4590;-51
2023/10/05 17:16:44;;;;;;;;;;;;;;;;;;4998079;28;5126;-51
2023/10/05 17:19:09;;;;;;;;;;;;;;;;;;5000630;28;5038;-52
2023/10/05 17:21:34;;;;;;;;;;;;;;;;;;4996526;28;5108;-49
2023/10/05 17:23:59;;;;;;;;;;;;;;;;;;5003955;28;5115;-49
2023/10/05 17:26:25;;;;;;;;;;;;;;;;;;4999818;28;3401;-49